sensor_id;sensor_type;location;lat;lon;timestamp;temperature;humidity
5226;DHT22;2632;51.666;7.146;2023-04-03T00:01:16;1.00;99.90
5226;DHT22;2632;51.666;7.146;2023-04-03T00:03:43;1.10;99.90
5226;DHT22;2632;51.666;7.146;2023-04-03T00:06:10;1.10;99.90
5226;DHT22;2632;51.666;7.146;2023-04-03T00:08:38;1.20;99.90
5226;DHT22;2632;51.666;7.146;2023-04-03T00:11:05;1.10;99.90
5226;DHT22;2632;51.666;7.146;2023-04-03T00:13:32;1.20;99.90
5226;DHT22;2632;51.666;7.146;2023-04-03T00:15:59;1.30;99.90
5226;DHT22;2632;51.666;7.146;2023-04-03T00:18:26;1.40;99.90
5226;DHT22;2632;51.666;7.146;2023-04-03T00:20:53;1.50;99.90
5226;DHT22;2632;51.666;7.146;2023-04-03T00:23:19;1.50;99.90
5226;DHT22;2632;51.666;7.146;2023-04-03T00:25:46;1.60;99.90
5226;DHT22;2632;51.666;7.146;2023-04-03T00:28:12;1.80;99.90
5226;DHT22;2632;51.666;7.146;2023-04-03T00:30:39;2.00;99.90
5226;DHT22;2632;51.666;7.146;2023-04-03T00:33:06;2.20;99.90
5226;DHT22;2632;51.666;7.146;2023-04-03T00:35:34;2.20;99.90
5226;DHT22;2632;51.666;7.146;2023-04-03T00:38:01;2.40;99.90
5226;DHT22;2632;51.666;7.146;2023-04-03T00:40:39;2.50;99.90
5226;DHT22;2632;51.666;7.146;2023-04-03T00:43:19;2.60;99.90
5226;DHT22;2632;51.666;7.146;2023-04-03T00:45:48;2.70;99.90
5226;DHT22;2632;51.666;7.146;2023-04-03T00:48:28;2.80;99.90
5226;DHT22;2632;51.666;7.146;2023-04-03T00:50:55;2.90;99.90
5226;DHT22;2632;51.666;7.146;2023-04-03T00:53:29;2.80;99.90
5226;DHT22;2632;51.666;7.146;2023-04-03T00:55:57;2.90;99.90
5226;DHT22;2632;51.666;7.146;2023-04-03T00:58:34;2.90;99.90
5226;DHT22;2632;51.666;7.146;2023-04-03T01:01:06;3.00;99.90
5226;DHT22;2632;51.666;7.146;2023-04-03T01:03:34;3.00;99.90
5226;DHT22;2632;51.666;7.146;2023-04-03T01:06:01;3.00;99.90
5226;DHT22;2632;51.666;7.146;2023-04-03T01:08:29;4.40;99.90
5226;DHT22;2632;51.666;7.146;2023-04-03T01:10:56;3.00;99.90
5226;DHT22;2632;51.666;7.146;2023-04-03T01:13:28;2.90;99.90
5226;DHT22;2632;51.666;7.146;2023-04-03T01:15:56;3.10;99.90
5226;DHT22;2632;51.666;7.146;2023-04-03T01:18:24;3.00;99.90
5226;DHT22;2632;51.666;7.146;2023-04-03T01:26:11;3.00;99.90
5226;DHT22;2632;51.666;7.146;2023-04-03T01:28:38;3.00;99.90
5226;DHT22;2632;51.666;7.146;2023-04-03T01:31:28;3.00;99.90
5226;DHT22;2632;51.666;7.146;2023-04-03T01:33:58;3.00;99.90
5226;DHT22;2632;51.666;7.146;2023-04-03T01:36:28;2.90;99.90
5226;DHT22;2632;51.666;7.146;2023-04-03T01:38:55;2.90;99.90
5226;DHT22;2632;51.666;7.146;2023-04-03T01:41:23;2.90;99.90
5226;DHT22;2632;51.666;7.146;2023-04-03T01:43:49;2.80;99.90
5226;DHT22;2632;51.666;7.146;2023-04-03T01:46:17;2.80;99.90
5226;DHT22;2632;51.666;7.146;2023-04-03T01:48:44;2.80;99.90
5226;DHT22;2632;51.666;7.146;2023-04-03T01:51:10;2.80;99.90
5226;DHT22;2632;51.666;7.146;2023-04-03T01:53:37;2.80;99.90
5226;DHT22;2632;51.666;7.146;2023-04-03T01:56:04;2.80;99.90
5226;DHT22;2632;51.666;7.146;2023-04-03T01:58:31;2.80;99.90
5226;DHT22;2632;51.666;7.146;2023-04-03T02:00:58;2.80;99.90
5226;DHT22;2632;51.666;7.146;2023-04-03T02:03:24;2.80;99.90
5226;DHT22;2632;51.666;7.146;2023-04-03T02:05:51;2.80;99.90
5226;DHT22;2632;51.666;7.146;2023-04-03T02:08:18;2.90;99.90
5226;DHT22;2632;51.666;7.146;2023-04-03T02:10:47;2.90;99.90
5226;DHT22;2632;51.666;7.146;2023-04-03T02:13:14;2.80;99.90
5226;DHT22;2632;51.666;7.146;2023-04-03T02:15:41;2.80;99.90
5226;DHT22;2632;51.666;7.146;2023-04-03T02:18:08;2.80;99.90
5226;DHT22;2632;51.666;7.146;2023-04-03T02:20:36;2.70;99.90
5226;DHT22;2632;51.666;7.146;2023-04-03T02:23:04;2.60;99.90
5226;DHT22;2632;51.666;7.146;2023-04-03T02:25:32;2.50;99.90
5226;DHT22;2632;51.666;7.146;2023-04-03T02:28:00;2.50;99.90
5226;DHT22;2632;51.666;7.146;2023-04-03T02:30:27;2.50;99.90
5226;DHT22;2632;51.666;7.146;2023-04-03T02:32:53;2.40;99.90
5226;DHT22;2632;51.666;7.146;2023-04-03T02:35:21;2.40;99.90
5226;DHT22;2632;51.666;7.146;2023-04-03T02:37:48;2.40;99.90
5226;DHT22;2632;51.666;7.146;2023-04-03T02:40:14;2.30;99.90
5226;DHT22;2632;51.666;7.146;2023-04-03T02:42:41;2.20;99.90
5226;DHT22;2632;51.666;7.146;2023-04-03T02:45:08;2.30;99.90
5226;DHT22;2632;51.666;7.146;2023-04-03T02:47:35;2.20;99.90
5226;DHT22;2632;51.666;7.146;2023-04-03T02:50:01;2.30;99.90
5226;DHT22;2632;51.666;7.146;2023-04-03T02:52:28;2.30;99.90
5226;DHT22;2632;51.666;7.146;2023-04-03T02:54:55;2.40;99.90
5226;DHT22;2632;51.666;7.146;2023-04-03T02:57:21;2.40;99.90
5226;DHT22;2632;51.666;7.146;2023-04-03T02:59:49;2.30;99.90
5226;DHT22;2632;51.666;7.146;2023-04-03T03:02:15;2.30;99.90
5226;DHT22;2632;51.666;7.146;2023-04-03T03:04:42;2.40;99.90
5226;DHT22;2632;51.666;7.146;2023-04-03T03:07:09;2.30;99.90
5226;DHT22;2632;51.666;7.146;2023-04-03T03:09:35;2.30;99.90
5226;DHT22;2632;51.666;7.146;2023-04-03T03:12:03;2.30;99.90
5226;DHT22;2632;51.666;7.146;2023-04-03T03:14:29;2.30;99.90
5226;DHT22;2632;51.666;7.146;2023-04-03T03:16:56;2.30;99.90
5226;DHT22;2632;51.666;7.146;2023-04-03T03:19:23;2.20;99.90
5226;DHT22;2632;51.666;7.146;2023-04-03T03:21:49;2.20;99.90
5226;DHT22;2632;51.666;7.146;2023-04-03T03:24:17;2.10;99.90
5226;DHT22;2632;51.666;7.146;2023-04-03T03:26:44;2.10;99.90
5226;DHT22;2632;51.666;7.146;2023-04-03T03:29:10;2.10;99.90
5226;DHT22;2632;51.666;7.146;2023-04-03T03:31:37;2.10;99.90
5226;DHT22;2632;51.666;7.146;2023-04-03T03:34:04;2.10;99.90
5226;DHT22;2632;51.666;7.146;2023-04-03T03:36:30;2.00;99.90
5226;DHT22;2632;51.666;7.146;2023-04-03T03:38:58;2.00;99.90
5226;DHT22;2632;51.666;7.146;2023-04-03T03:41:24;2.10;99.90
5226;DHT22;2632;51.666;7.146;2023-04-03T03:43:51;2.00;99.90
5226;DHT22;2632;51.666;7.146;2023-04-03T03:46:18;1.90;99.90
5226;DHT22;2632;51.666;7.146;2023-04-03T03:48:44;1.90;99.90
5226;DHT22;2632;51.666;7.146;2023-04-03T03:51:11;1.80;99.90
5226;DHT22;2632;51.666;7.146;2023-04-03T03:53:38;1.80;99.90
5226;DHT22;2632;51.666;7.146;2023-04-03T03:56:04;1.80;99.90
5226;DHT22;2632;51.666;7.146;2023-04-03T03:58:32;1.80;99.90
5226;DHT22;2632;51.666;7.146;2023-04-03T04:01:03;1.80;99.90
5226;DHT22;2632;51.666;7.146;2023-04-03T04:03:30;1.70;99.90
5226;DHT22;2632;51.666;7.146;2023-04-03T04:05:57;1.70;99.90
5226;DHT22;2632;51.666;7.146;2023-04-03T04:08:24;1.70;99.90
5226;DHT22;2632;51.666;7.146;2023-04-03T04:10:51;1.70;99.90
5226;DHT22;2632;51.666;7.146;2023-04-03T04:13:18;1.60;99.90
5226;DHT22;2632;51.666;7.146;2023-04-03T04:15:45;1.50;99.90
5226;DHT22;2632;51.666;7.146;2023-04-03T04:18:11;1.50;99.90
5226;DHT22;2632;51.666;7.146;2023-04-03T04:20:38;1.50;99.90
5226;DHT22;2632;51.666;7.146;2023-04-03T04:23:04;1.50;99.90
5226;DHT22;2632;51.666;7.146;2023-04-03T04:25:31;1.50;99.90
5226;DHT22;2632;51.666;7.146;2023-04-03T04:27:59;1.50;99.90
5226;DHT22;2632;51.666;7.146;2023-04-03T04:30:25;1.50;99.90
5226;DHT22;2632;51.666;7.146;2023-04-03T04:32:53;1.40;99.90
5226;DHT22;2632;51.666;7.146;2023-04-03T04:35:20;1.50;99.90
5226;DHT22;2632;51.666;7.146;2023-04-03T04:37:47;1.40;99.90
5226;DHT22;2632;51.666;7.146;2023-04-03T04:40:14;1.30;99.90
5226;DHT22;2632;51.666;7.146;2023-04-03T04:42:41;1.30;99.90
5226;DHT22;2632;51.666;7.146;2023-04-03T04:45:07;1.30;99.90
5226;DHT22;2632;51.666;7.146;2023-04-03T04:47:34;1.30;99.90
5226;DHT22;2632;51.666;7.146;2023-04-03T04:50:01;1.30;99.90
5226;DHT22;2632;51.666;7.146;2023-04-03T04:52:27;1.30;99.90
5226;DHT22;2632;51.666;7.146;2023-04-03T04:54:54;1.20;99.90
5226;DHT22;2632;51.666;7.146;2023-04-03T04:57:21;1.20;99.90
5226;DHT22;2632;51.666;7.146;2023-04-03T04:59:48;1.20;99.90
5226;DHT22;2632;51.666;7.146;2023-04-03T05:02:14;1.20;99.90
5226;DHT22;2632;51.666;7.146;2023-04-03T05:04:41;1.10;99.90
5226;DHT22;2632;51.666;7.146;2023-04-03T05:07:08;1.10;99.90
5226;DHT22;2632;51.666;7.146;2023-04-03T05:09:35;1.20;99.90
5226;DHT22;2632;51.666;7.146;2023-04-03T05:12:01;1.10;99.90
5226;DHT22;2632;51.666;7.146;2023-04-03T05:14:29;1.30;99.90
5226;DHT22;2632;51.666;7.146;2023-04-03T05:16:56;1.20;99.90
5226;DHT22;2632;51.666;7.146;2023-04-03T05:19:24;1.10;99.90
5226;DHT22;2632;51.666;7.146;2023-04-03T05:21:50;1.10;99.90
5226;DHT22;2632;51.666;7.146;2023-04-03T05:24:17;1.10;99.90
5226;DHT22;2632;51.666;7.146;2023-04-03T05:26:44;1.10;99.90
5226;DHT22;2632;51.666;7.146;2023-04-03T05:29:11;1.10;99.90
5226;DHT22;2632;51.666;7.146;2023-04-03T05:31:37;1.10;99.90
5226;DHT22;2632;51.666;7.146;2023-04-03T05:34:04;1.10;99.90
5226;DHT22;2632;51.666;7.146;2023-04-03T05:36:32;1.20;99.90
5226;DHT22;2632;51.666;7.146;2023-04-03T05:38:58;1.20;99.90
5226;DHT22;2632;51.666;7.146;2023-04-03T05:41:25;1.30;99.90
5226;DHT22;2632;51.666;7.146;2023-04-03T05:43:52;1.30;99.90
5226;DHT22;2632;51.666;7.146;2023-04-03T05:46:19;1.50;99.90
5226;DHT22;2632;51.666;7.146;2023-04-03T05:48:47;1.90;99.90
5226;DHT22;2632;51.666;7.146;2023-04-03T05:51:25;2.10;99.90
5226;DHT22;2632;51.666;7.146;2023-04-03T05:53:59;2.70;99.90
5226;DHT22;2632;51.666;7.146;2023-04-03T05:56:27;2.80;99.90
5226;DHT22;2632;51.666;7.146;2023-04-03T05:58:54;2.80;99.90
5226;DHT22;2632;51.666;7.146;2023-04-03T06:01:21;2.80;99.90
5226;DHT22;2632;51.666;7.146;2023-04-03T06:03:48;2.70;99.90
5226;DHT22;2632;51.666;7.146;2023-04-03T06:06:15;2.60;99.90
5226;DHT22;2632;51.666;7.146;2023-04-03T06:08:41;2.70;99.90
5226;DHT22;2632;51.666;7.146;2023-04-03T06:11:12;2.80;99.90
5226;DHT22;2632;51.666;7.146;2023-04-03T06:13:38;2.80;99.90
5226;DHT22;2632;51.666;7.146;2023-04-03T06:16:05;2.90;99.90
5226;DHT22;2632;51.666;7.146;2023-04-03T06:18:32;2.80;99.90
5226;DHT22;2632;51.666;7.146;2023-04-03T06:20:59;2.90;99.90
5226;DHT22;2632;51.666;7.146;2023-04-03T06:23:27;3.80;99.90
5226;DHT22;2632;51.666;7.146;2023-04-03T06:25:53;4.30;99.90
5226;DHT22;2632;51.666;7.146;2023-04-03T06:28:20;5.40;98.40
5226;DHT22;2632;51.666;7.146;2023-04-03T06:30:47;5.20;96.00
5226;DHT22;2632;51.666;7.146;2023-04-03T06:33:14;3.50;99.90
5226;DHT22;2632;51.666;7.146;2023-04-03T06:35:40;3.50;99.90
5226;DHT22;2632;51.666;7.146;2023-04-03T06:38:07;3.40;99.90
5226;DHT22;2632;51.666;7.146;2023-04-03T06:40:37;4.80;99.90
5226;DHT22;2632;51.666;7.146;2023-04-03T06:43:04;5.40;99.90
5226;DHT22;2632;51.666;7.146;2023-04-03T06:45:31;5.40;97.90
5226;DHT22;2632;51.666;7.146;2023-04-03T06:47:58;5.20;96.30
5226;DHT22;2632;51.666;7.146;2023-04-03T06:50:24;5.40;96.30
5226;DHT22;2632;51.666;7.146;2023-04-03T06:52:51;5.20;96.60
5226;DHT22;2632;51.666;7.146;2023-04-03T06:55:18;7.30;96.00
5226;DHT22;2632;51.666;7.146;2023-04-03T06:57:44;7.20;90.50
5226;DHT22;2632;51.666;7.146;2023-04-03T07:00:12;7.20;92.10
5226;DHT22;2632;51.666;7.146;2023-04-03T07:02:39;8.60;90.40
5226;DHT22;2632;51.666;7.146;2023-04-03T07:05:06;8.50;76.10
5226;DHT22;2632;51.666;7.146;2023-04-03T07:07:33;10.50;67.10
5226;DHT22;2632;51.666;7.146;2023-04-03T07:10:00;11.10;68.20
5226;DHT22;2632;51.666;7.146;2023-04-03T07:12:27;11.10;59.30
5226;DHT22;2632;51.666;7.146;2023-04-03T07:14:54;9.90;61.20
5226;DHT22;2632;51.666;7.146;2023-04-03T07:17:21;8.90;64.60
5226;DHT22;2632;51.666;7.146;2023-04-03T07:19:47;9.60;65.00
5226;DHT22;2632;51.666;7.146;2023-04-03T07:22:14;9.70;61.90
5226;DHT22;2632;51.666;7.146;2023-04-03T07:27:08;9.70;62.50
5226;DHT22;2632;51.666;7.146;2023-04-03T07:29:35;10.10;64.50
5226;DHT22;2632;51.666;7.146;2023-04-03T07:32:02;12.00;57.30
5226;DHT22;2632;51.666;7.146;2023-04-03T07:34:29;14.60;50.10
5226;DHT22;2632;51.666;7.146;2023-04-03T07:36:56;16.30;53.90
5226;DHT22;2632;51.666;7.146;2023-04-03T07:39:24;16.70;45.60
5226;DHT22;2632;51.666;7.146;2023-04-03T07:41:51;18.70;38.30
5226;DHT22;2632;51.666;7.146;2023-04-03T07:44:18;19.10;37.80
5226;DHT22;2632;51.666;7.146;2023-04-03T07:46:44;14.40;40.70
5226;DHT22;2632;51.666;7.146;2023-04-03T07:49:11;11.50;47.60
5226;DHT22;2632;51.666;7.146;2023-04-03T07:51:37;10.00;64.50
5226;DHT22;2632;51.666;7.146;2023-04-03T07:54:04;9.90;55.90
5226;DHT22;2632;51.666;7.146;2023-04-03T07:56:31;10.90;52.90
5226;DHT22;2632;51.666;7.146;2023-04-03T07:58:58;14.00;57.00
5226;DHT22;2632;51.666;7.146;2023-04-03T08:01:25;14.40;51.20
5226;DHT22;2632;51.666;7.146;2023-04-03T08:03:51;14.30;44.50
5226;DHT22;2632;51.666;7.146;2023-04-03T08:06:18;15.50;42.60
5226;DHT22;2632;51.666;7.146;2023-04-03T08:08:58;16.30;41.90
5226;DHT22;2632;51.666;7.146;2023-04-03T08:11:25;16.40;44.30
5226;DHT22;2632;51.666;7.146;2023-04-03T08:13:53;16.50;39.90
5226;DHT22;2632;51.666;7.146;2023-04-03T08:16:22;18.10;38.00
5226;DHT22;2632;51.666;7.146;2023-04-03T08:18:49;18.70;35.10
5226;DHT22;2632;51.666;7.146;2023-04-03T08:21:16;18.00;36.30
5226;DHT22;2632;51.666;7.146;2023-04-03T08:23:43;14.20;47.70
5226;DHT22;2632;51.666;7.146;2023-04-03T08:26:12;13.70;40.40
5226;DHT22;2632;51.666;7.146;2023-04-03T08:28:39;13.50;41.80
5226;DHT22;2632;51.666;7.146;2023-04-03T08:31:10;13.40;43.40
5226;DHT22;2632;51.666;7.146;2023-04-03T08:33:38;16.40;38.50
5226;DHT22;2632;51.666;7.146;2023-04-03T08:36:07;17.70;35.00
5226;DHT22;2632;51.666;7.146;2023-04-03T08:38:34;17.60;34.50
5226;DHT22;2632;51.666;7.146;2023-04-03T08:41:15;15.50;35.80
5226;DHT22;2632;51.666;7.146;2023-04-03T08:43:57;15.20;38.80
5226;DHT22;2632;51.666;7.146;2023-04-03T08:46:51;16.10;39.20
5226;DHT22;2632;51.666;7.146;2023-04-03T08:52:11;19.00;33.10
5226;DHT22;2632;51.666;7.146;2023-04-03T08:54:58;19.40;32.10
5226;DHT22;2632;51.666;7.146;2023-04-03T08:57:32;19.10;31.00
5226;DHT22;2632;51.666;7.146;2023-04-03T09:00:04;18.50;31.60
5226;DHT22;2632;51.666;7.146;2023-04-03T09:02:35;17.90;33.50
5226;DHT22;2632;51.666;7.146;2023-04-03T09:05:13;17.50;32.90
5226;DHT22;2632;51.666;7.146;2023-04-03T09:07:44;13.70;37.60
5226;DHT22;2632;51.666;7.146;2023-04-03T09:10:18;10.80;50.10
5226;DHT22;2632;51.666;7.146;2023-04-03T09:13:39;10.70;42.80
5226;DHT22;2632;51.666;7.146;2023-04-03T09:15:45;10.80;43.40
5226;DHT22;2632;51.666;7.146;2023-04-03T09:18:16;12.50;40.90
5226;DHT22;2632;51.666;7.146;2023-04-03T09:21:14;15.10;37.80
5226;DHT22;2632;51.666;7.146;2023-04-03T09:23:50;16.70;35.60
5226;DHT22;2632;51.666;7.146;2023-04-03T09:26:22;17.80;33.80
5226;DHT22;2632;51.666;7.146;2023-04-03T09:28:49;19.20;38.90
5226;DHT22;2632;51.666;7.146;2023-04-03T09:33:49;18.30;32.20
5226;DHT22;2632;51.666;7.146;2023-04-03T09:36:40;18.30;30.60
5226;DHT22;2632;51.666;7.146;2023-04-03T09:40:12;18.80;30.80
5226;DHT22;2632;51.666;7.146;2023-04-03T09:42:17;19.30;31.40
5226;DHT22;2632;51.666;7.146;2023-04-03T09:44:55;20.40;29.50
5226;DHT22;2632;51.666;7.146;2023-04-03T09:49:49;21.00;29.10
5226;DHT22;2632;51.666;7.146;2023-04-03T09:52:23;19.50;28.50
5226;DHT22;2632;51.666;7.146;2023-04-03T09:54:50;18.30;31.60
5226;DHT22;2632;51.666;7.146;2023-04-03T09:57:17;19.30;29.50
5226;DHT22;2632;51.666;7.146;2023-04-03T10:00:00;18.90;29.50
5226;DHT22;2632;51.666;7.146;2023-04-03T10:02:38;18.30;29.50
5226;DHT22;2632;51.666;7.146;2023-04-03T10:05:31;19.00;30.60
5226;DHT22;2632;51.666;7.146;2023-04-03T10:10:41;13.60;35.30
5226;DHT22;2632;51.666;7.146;2023-04-03T10:13:12;13.20;37.90
5226;DHT22;2632;51.666;7.146;2023-04-03T10:16:07;12.80;37.50
5226;DHT22;2632;51.666;7.146;2023-04-03T10:21:26;16.50;31.20
5226;DHT22;2632;51.666;7.146;2023-04-03T10:24:08;16.40;31.80
5226;DHT22;2632;51.666;7.146;2023-04-03T10:26:49;17.60;31.20
5226;DHT22;2632;51.666;7.146;2023-04-03T10:32:29;17.80;32.10
5226;DHT22;2632;51.666;7.146;2023-04-03T10:35:12;18.80;31.60
5226;DHT22;2632;51.666;7.146;2023-04-03T10:37:55;17.50;32.00
5226;DHT22;2632;51.666;7.146;2023-04-03T10:40:36;18.50;33.30
5226;DHT22;2632;51.666;7.146;2023-04-03T10:46:07;19.10;32.00
5226;DHT22;2632;51.666;7.146;2023-04-03T10:49:00;17.70;31.90
5226;DHT22;2632;51.666;7.146;2023-04-03T10:51:48;19.10;31.00
5226;DHT22;2632;51.666;7.146;2023-04-03T10:54:35;21.00;29.50
5226;DHT22;2632;51.666;7.146;2023-04-03T10:57:10;18.70;29.40
5226;DHT22;2632;51.666;7.146;2023-04-03T10:59:49;18.40;31.40
5226;DHT22;2632;51.666;7.146;2023-04-03T11:02:30;19.00;31.60
5226;DHT22;2632;51.666;7.146;2023-04-03T11:07:48;19.10;31.10
5226;DHT22;2632;51.666;7.146;2023-04-03T11:10:35;19.60;30.00
5226;DHT22;2632;51.666;7.146;2023-04-03T11:13:11;18.70;29.50
5226;DHT22;2632;51.666;7.146;2023-04-03T11:15:39;17.70;30.90
5226;DHT22;2632;51.666;7.146;2023-04-03T11:18:17;17.00;31.90
5226;DHT22;2632;51.666;7.146;2023-04-03T11:20:56;17.40;32.30
5226;DHT22;2632;51.666;7.146;2023-04-03T11:23:32;15.30;33.40
5226;DHT22;2632;51.666;7.146;2023-04-03T11:26:19;14.30;35.70
5226;DHT22;2632;51.666;7.146;2023-04-03T11:28:53;13.80;35.50
5226;DHT22;2632;51.666;7.146;2023-04-03T11:31:33;15.50;34.00
5226;DHT22;2632;51.666;7.146;2023-04-03T11:36:44;19.10;32.80
5226;DHT22;2632;51.666;7.146;2023-04-03T11:39:25;18.30;30.50
5226;DHT22;2632;51.666;7.146;2023-04-03T11:41:53;19.10;31.70
5226;DHT22;2632;51.666;7.146;2023-04-03T11:44:37;19.30;31.10
5226;DHT22;2632;51.666;7.146;2023-04-03T11:47:06;18.60;29.90
5226;DHT22;2632;51.666;7.146;2023-04-03T11:49:54;19.80;29.90
5226;DHT22;2632;51.666;7.146;2023-04-03T12:11:31;17.00;31.20
5226;DHT22;2632;51.666;7.146;2023-04-03T12:19:37;17.00;32.00
5226;DHT22;2632;51.666;7.146;2023-04-03T12:22:18;16.70;32.10
5226;DHT22;2632;51.666;7.146;2023-04-03T12:24:50;17.40;31.10
5226;DHT22;2632;51.666;7.146;2023-04-03T12:27:28;16.70;32.30
5226;DHT22;2632;51.666;7.146;2023-04-03T12:44:11;13.30;36.20
5226;DHT22;2632;51.666;7.146;2023-04-03T12:46:47;13.20;36.40
5226;DHT22;2632;51.666;7.146;2023-04-03T12:49:41;12.30;38.20
5226;DHT22;2632;51.666;7.146;2023-04-03T12:52:37;13.60;37.30
5226;DHT22;2632;51.666;7.146;2023-04-03T12:55:18;13.70;36.90
5226;DHT22;2632;51.666;7.146;2023-04-03T12:57:45;15.60;34.70
5226;DHT22;2632;51.666;7.146;2023-04-03T13:00:32;17.10;34.40
5226;DHT22;2632;51.666;7.146;2023-04-03T13:03:01;17.20;32.10
5226;DHT22;2632;51.666;7.146;2023-04-03T13:05:30;17.60;33.10
5226;DHT22;2632;51.666;7.146;2023-04-03T13:08:06;17.50;32.60
5226;DHT22;2632;51.666;7.146;2023-04-03T13:10:47;16.80;32.10
5226;DHT22;2632;51.666;7.146;2023-04-03T13:13:14;16.50;32.80
5226;DHT22;2632;51.666;7.146;2023-04-03T13:15:47;17.00;34.60
5226;DHT22;2632;51.666;7.146;2023-04-03T13:18:33;17.70;32.70
5226;DHT22;2632;51.666;7.146;2023-04-03T13:21:19;16.80;31.60
5226;DHT22;2632;51.666;7.146;2023-04-03T13:23:49;17.10;32.70
5226;DHT22;2632;51.666;7.146;2023-04-03T13:26:29;17.40;32.80
5226;DHT22;2632;51.666;7.146;2023-04-03T13:29:02;16.70;34.10
5226;DHT22;2632;51.666;7.146;2023-04-03T13:31:32;18.00;33.80
5226;DHT22;2632;51.666;7.146;2023-04-03T13:34:18;18.10;32.60
5226;DHT22;2632;51.666;7.146;2023-04-03T13:36:54;18.00;33.80
5226;DHT22;2632;51.666;7.146;2023-04-03T13:39:33;18.20;34.10
5226;DHT22;2632;51.666;7.146;2023-04-03T13:42:15;18.00;36.00
5226;DHT22;2632;51.666;7.146;2023-04-03T13:44:42;17.70;34.10
5226;DHT22;2632;51.666;7.146;2023-04-03T13:49:41;16.20;33.80
5226;DHT22;2632;51.666;7.146;2023-04-03T13:52:27;16.90;34.40
5226;DHT22;2632;51.666;7.146;2023-04-03T13:55:00;16.00;34.00
5226;DHT22;2632;51.666;7.146;2023-04-03T13:57:28;15.30;34.40
5226;DHT22;2632;51.666;7.146;2023-04-03T13:59:55;15.80;34.60
5226;DHT22;2632;51.666;7.146;2023-04-03T14:02:30;15.50;34.80
5226;DHT22;2632;51.666;7.146;2023-04-03T14:04:59;15.20;36.40
5226;DHT22;2632;51.666;7.146;2023-04-03T14:07:30;15.30;35.70
5226;DHT22;2632;51.666;7.146;2023-04-03T14:09:57;14.70;36.20
5226;DHT22;2632;51.666;7.146;2023-04-03T14:12:31;14.90;38.40
5226;DHT22;2632;51.666;7.146;2023-04-03T14:15:06;14.40;35.50
5226;DHT22;2632;51.666;7.146;2023-04-03T14:17:34;14.10;36.20
5226;DHT22;2632;51.666;7.146;2023-04-03T14:20:01;14.50;38.50
5226;DHT22;2632;51.666;7.146;2023-04-03T14:22:30;13.70;37.80
5226;DHT22;2632;51.666;7.146;2023-04-03T14:24:58;13.40;37.00
5226;DHT22;2632;51.666;7.146;2023-04-03T14:27:34;13.30;37.80
5226;DHT22;2632;51.666;7.146;2023-04-03T14:30:02;13.20;38.00
5226;DHT22;2632;51.666;7.146;2023-04-03T14:32:30;13.10;39.00
5226;DHT22;2632;51.666;7.146;2023-04-03T14:34:57;13.10;38.50
5226;DHT22;2632;51.666;7.146;2023-04-03T14:37:26;13.10;38.30
5226;DHT22;2632;51.666;7.146;2023-04-03T14:39:55;13.20;39.00
5226;DHT22;2632;51.666;7.146;2023-04-03T14:42:30;13.00;39.60
5226;DHT22;2632;51.666;7.146;2023-04-03T14:44:59;12.80;39.70
5226;DHT22;2632;51.666;7.146;2023-04-03T14:47:28;13.10;40.60
5226;DHT22;2632;51.666;7.146;2023-04-03T14:50:03;13.40;38.70
5226;DHT22;2632;51.666;7.146;2023-04-03T14:52:35;13.30;38.70
5226;DHT22;2632;51.666;7.146;2023-04-03T14:55:04;13.00;37.50
5226;DHT22;2632;51.666;7.146;2023-04-03T14:57:32;12.90;39.10
5226;DHT22;2632;51.666;7.146;2023-04-03T14:59:59;13.20;39.70
5226;DHT22;2632;51.666;7.146;2023-04-03T15:02:36;13.70;40.20
5226;DHT22;2632;51.666;7.146;2023-04-03T15:05:08;12.80;40.30
5226;DHT22;2632;51.666;7.146;2023-04-03T15:07:41;12.00;41.30
5226;DHT22;2632;51.666;7.146;2023-04-03T15:10:21;12.20;42.60
5226;DHT22;2632;51.666;7.146;2023-04-03T15:12:48;11.60;40.60
5226;DHT22;2632;51.666;7.146;2023-04-03T15:15:18;11.50;41.20
5226;DHT22;2632;51.666;7.146;2023-04-03T15:17:55;11.60;42.10
5226;DHT22;2632;51.666;7.146;2023-04-03T15:20:26;11.50;42.00
5226;DHT22;2632;51.666;7.146;2023-04-03T15:22:54;11.20;41.80
5226;DHT22;2632;51.666;7.146;2023-04-03T15:25:23;11.20;43.00
5226;DHT22;2632;51.666;7.146;2023-04-03T15:27:49;11.30;42.10
5226;DHT22;2632;51.666;7.146;2023-04-03T15:30:18;11.30;43.80
5226;DHT22;2632;51.666;7.146;2023-04-03T15:32:45;11.40;42.50
5226;DHT22;2632;51.666;7.146;2023-04-03T15:35:12;11.70;41.50
5226;DHT22;2632;51.666;7.146;2023-04-03T15:37:39;11.50;41.30
5226;DHT22;2632;51.666;7.146;2023-04-03T15:40:08;11.10;41.00
5226;DHT22;2632;51.666;7.146;2023-04-03T15:42:35;11.30;41.20
5226;DHT22;2632;51.666;7.146;2023-04-03T15:45:02;10.80;41.20
5226;DHT22;2632;51.666;7.146;2023-04-03T15:47:29;10.90;41.60
5226;DHT22;2632;51.666;7.146;2023-04-03T15:49:56;11.10;42.40
5226;DHT22;2632;51.666;7.146;2023-04-03T15:52:23;11.40;42.30
5226;DHT22;2632;51.666;7.146;2023-04-03T15:54:49;11.20;42.00
5226;DHT22;2632;51.666;7.146;2023-04-03T15:57:16;11.20;42.10
5226;DHT22;2632;51.666;7.146;2023-04-03T15:59:43;11.30;43.00
5226;DHT22;2632;51.666;7.146;2023-04-03T16:02:11;11.00;41.80
5226;DHT22;2632;51.666;7.146;2023-04-03T16:04:40;10.90;43.70
5226;DHT22;2632;51.666;7.146;2023-04-03T16:07:07;10.70;43.70
5226;DHT22;2632;51.666;7.146;2023-04-03T16:09:34;10.70;45.00
5226;DHT22;2632;51.666;7.146;2023-04-03T16:12:01;11.10;44.40
5226;DHT22;2632;51.666;7.146;2023-04-03T16:14:28;11.00;43.40
5226;DHT22;2632;51.666;7.146;2023-04-03T16:16:57;10.70;44.10
5226;DHT22;2632;51.666;7.146;2023-04-03T16:19:25;10.40;45.10
5226;DHT22;2632;51.666;7.146;2023-04-03T16:21:53;10.20;44.40
5226;DHT22;2632;51.666;7.146;2023-04-03T16:24:20;10.00;44.30
5226;DHT22;2632;51.666;7.146;2023-04-03T16:26:47;9.90;45.10
5226;DHT22;2632;51.666;7.146;2023-04-03T16:29:13;9.80;44.40
5226;DHT22;2632;51.666;7.146;2023-04-03T16:31:40;9.80;45.00
5226;DHT22;2632;51.666;7.146;2023-04-03T16:34:07;9.80;46.70
5226;DHT22;2632;51.666;7.146;2023-04-03T16:36:33;9.70;45.90
5226;DHT22;2632;51.666;7.146;2023-04-03T16:39:00;9.70;45.90
5226;DHT22;2632;51.666;7.146;2023-04-03T16:41:26;9.70;46.00
5226;DHT22;2632;51.666;7.146;2023-04-03T16:43:53;9.70;46.40
5226;DHT22;2632;51.666;7.146;2023-04-03T16:46:20;9.60;44.90
5226;DHT22;2632;51.666;7.146;2023-04-03T16:48:46;9.30;44.60
5226;DHT22;2632;51.666;7.146;2023-04-03T16:51:13;9.00;45.90
5226;DHT22;2632;51.666;7.146;2023-04-03T16:53:39;9.10;46.60
5226;DHT22;2632;51.666;7.146;2023-04-03T16:56:06;9.10;46.70
5226;DHT22;2632;51.666;7.146;2023-04-03T16:58:33;9.30;47.00
5226;DHT22;2632;51.666;7.146;2023-04-03T17:01:09;9.30;46.50
5226;DHT22;2632;51.666;7.146;2023-04-03T17:03:35;8.90;45.40
5226;DHT22;2632;51.666;7.146;2023-04-03T17:06:02;8.80;47.10
5226;DHT22;2632;51.666;7.146;2023-04-03T17:08:29;8.70;46.40
5226;DHT22;2632;51.666;7.146;2023-04-03T17:10:55;8.70;46.60
5226;DHT22;2632;51.666;7.146;2023-04-03T17:13:22;8.50;47.80
5226;DHT22;2632;51.666;7.146;2023-04-03T17:15:48;8.40;47.70
5226;DHT22;2632;51.666;7.146;2023-04-03T17:18:15;8.50;48.20
5226;DHT22;2632;51.666;7.146;2023-04-03T17:20:42;8.30;47.70
5226;DHT22;2632;51.666;7.146;2023-04-03T17:23:08;8.30;47.40
5226;DHT22;2632;51.666;7.146;2023-04-03T17:25:35;8.10;48.60
5226;DHT22;2632;51.666;7.146;2023-04-03T17:28:02;8.10;49.60
5226;DHT22;2632;51.666;7.146;2023-04-03T17:30:28;8.10;49.20
5226;DHT22;2632;51.666;7.146;2023-04-03T17:32:55;8.00;49.80
5226;DHT22;2632;51.666;7.146;2023-04-03T17:35:22;8.00;49.80
5226;DHT22;2632;51.666;7.146;2023-04-03T17:37:49;7.90;49.70
5226;DHT22;2632;51.666;7.146;2023-04-03T17:40:16;7.80;50.60
5226;DHT22;2632;51.666;7.146;2023-04-03T17:42:44;7.80;51.40